sensor_id;sensor_type;location;lat;lon;timestamp;pressure;altitude;pressure_sealevel;temperature;humidity
31044;BME280;17710;52.520;13.352;2023-04-21T00:01:20;101666.19;;;17.33;48.34
31044;BME280;17710;52.520;13.352;2023-04-21T00:03:46;101667.16;;;17.13;48.90
31044;BME280;17710;52.520;13.352;2023-04-21T00:06:13;101667.94;;;17.16;48.68
31044;BME280;17710;52.520;13.352;2023-04-21T00:08:47;101670.50;;;17.00;49.12
31044;BME280;17710;52.520;13.352;2023-04-21T00:11:14;101661.91;;;16.93;49.23
31044;BME280;17710;52.520;13.352;2023-04-21T00:13:41;101670.28;;;17.04;49.03
31044;BME280;17710;52.520;13.352;2023-04-21T00:16:07;101658.38;;;16.93;49.18
31044;BME280;17710;52.520;13.352;2023-04-21T00:18:34;101666.81;;;17.02;48.91
31044;BME280;17710;52.520;13.352;2023-04-21T00:21:00;101663.13;;;17.05;48.96
31044;BME280;17710;52.520;13.352;2023-04-21T00:23:27;101662.75;;;16.94;48.94
31044;BME280;17710;52.520;13.352;2023-04-21T00:25:55;101665.41;;;16.94;49.03
31044;BME280;17710;52.520;13.352;2023-04-21T00:28:22;101663.16;;;16.86;49.20
31044;BME280;17710;52.520;13.352;2023-04-21T00:30:48;101661.75;;;16.78;49.44
31044;BME280;17710;52.520;13.352;2023-04-21T00:33:15;101655.03;;;16.69;49.67
31044;BME280;17710;52.520;13.352;2023-04-21T00:35:41;101650.16;;;16.60;49.98
31044;BME280;17710;52.520;13.352;2023-04-21T00:38:08;101657.34;;;16.77;49.45
31044;BME280;17710;52.520;13.352;2023-04-21T00:40:34;101653.25;;;16.69;49.60
31044;BME280;17710;52.520;13.352;2023-04-21T00:43:05;101654.59;;;16.59;49.59
31044;BME280;17710;52.520;13.352;2023-04-21T00:45:31;101645.78;;;16.57;49.67
31044;BME280;17710;52.520;13.352;2023-04-21T00:47:58;101647.84;;;16.71;49.36
31044;BME280;17710;52.520;13.352;2023-04-21T00:50:24;101648.84;;;16.68;49.32
31044;BME280;17710;52.520;13.352;2023-04-21T00:52:51;101643.72;;;16.64;49.61
31044;BME280;17710;52.520;13.352;2023-04-21T00:55:18;101638.31;;;16.65;49.30
31044;BME280;17710;52.520;13.352;2023-04-21T00:57:44;101637.84;;;16.56;49.15
31044;BME280;17710;52.520;13.352;2023-04-21T01:00:14;101638.44;;;16.62;49.07
31044;BME280;17710;52.520;13.352;2023-04-21T01:02:40;101647.09;;;16.28;49.58
31044;BME280;17710;52.520;13.352;2023-04-21T01:05:10;101638.56;;;16.59;48.89
31044;BME280;17710;52.520;13.352;2023-04-21T01:07:37;101645.13;;;16.52;49.35
31044;BME280;17710;52.520;13.352;2023-04-21T01:10:05;101637.25;;;16.49;49.15
31044;BME280;17710;52.520;13.352;2023-04-21T01:12:31;101638.28;;;16.47;48.99
31044;BME280;17710;52.520;13.352;2023-04-21T01:14:59;101636.72;;;16.61;48.49
31044;BME280;17710;52.520;13.352;2023-04-21T01:17:30;101641.63;;;16.31;48.75
31044;BME280;17710;52.520;13.352;2023-04-21T01:19:57;101640.13;;;16.45;48.55
31044;BME280;17710;52.520;13.352;2023-04-21T01:22:30;101645.44;;;16.26;48.55
31044;BME280;17710;52.520;13.352;2023-04-21T01:24:57;101640.13;;;16.45;48.28
31044;BME280;17710;52.520;13.352;2023-04-21T01:27:23;101640.69;;;16.32;48.60
31044;BME280;17710;52.520;13.352;2023-04-21T01:29:51;101627.88;;;16.41;47.97
31044;BME280;17710;52.520;13.352;2023-04-21T01:32:19;101632.34;;;16.40;47.75
31044;BME280;17710;52.520;13.352;2023-04-21T01:34:47;101627.72;;;16.44;47.57
31044;BME280;17710;52.520;13.352;2023-04-21T01:37:16;101624.41;;;16.39;47.61
31044;BME280;17710;52.520;13.352;2023-04-21T01:39:46;101630.44;;;16.23;47.88
31044;BME280;17710;52.520;13.352;2023-04-21T01:42:12;101625.56;;;16.33;47.50
31044;BME280;17710;52.520;13.352;2023-04-21T01:44:39;101622.97;;;16.31;47.55
31044;BME280;17710;52.520;13.352;2023-04-21T01:47:07;101621.97;;;16.34;47.35
31044;BME280;17710;52.520;13.352;2023-04-21T01:49:33;101627.81;;;16.22;47.42
31044;BME280;17710;52.520;13.352;2023-04-21T01:52:00;101624.75;;;16.31;47.24
31044;BME280;17710;52.520;13.352;2023-04-21T01:54:27;101621.22;;;16.30;46.94
31044;BME280;17710;52.520;13.352;2023-04-21T01:56:55;101626.97;;;16.21;46.96
31044;BME280;17710;52.520;13.352;2023-04-21T01:59:22;101621.91;;;16.15;47.17
31044;BME280;17710;52.520;13.352;2023-04-21T02:01:48;101620.03;;;16.17;46.90
31044;BME280;17710;52.520;13.352;2023-04-21T02:04:15;101612.97;;;16.16;47.01
31044;BME280;17710;52.520;13.352;2023-04-21T02:06:41;101611.69;;;16.25;46.61
31044;BME280;17710;52.520;13.352;2023-04-21T02:09:07;101615.31;;;16.24;46.77
31044;BME280;17710;52.520;13.352;2023-04-21T02:11:34;101612.97;;;16.16;46.62
31044;BME280;17710;52.520;13.352;2023-04-21T02:14:02;101609.38;;;16.17;46.38
31044;BME280;17710;52.520;13.352;2023-04-21T02:16:28;101614.50;;;16.22;46.30
31044;BME280;17710;52.520;13.352;2023-04-21T02:18:56;101607.06;;;16.10;46.63
31044;BME280;17710;52.520;13.352;2023-04-21T02:21:22;101606.50;;;16.22;46.27
31044;BME280;17710;52.520;13.352;2023-04-21T02:23:49;101599.97;;;16.09;46.36
31044;BME280;17710;52.520;13.352;2023-04-21T02:26:16;101604.44;;;16.08;46.15
31044;BME280;17710;52.520;13.352;2023-04-21T02:28:43;101601.28;;;16.00;46.57
31044;BME280;17710;52.520;13.352;2023-04-21T02:31:11;101600.72;;;16.12;46.33
31044;BME280;17710;52.520;13.352;2023-04-21T02:33:38;101604.66;;;16.04;46.18
31044;BME280;17710;52.520;13.352;2023-04-21T02:36:05;101607.91;;;16.10;46.22
31044;BME280;17710;52.520;13.352;2023-04-21T02:38:31;101605.81;;;15.98;46.61
31044;BME280;17710;52.520;13.352;2023-04-21T02:40:58;101605.59;;;15.82;46.61
31044;BME280;17710;52.520;13.352;2023-04-21T02:43:24;101601.56;;;15.94;46.42
31044;BME280;17710;52.520;13.352;2023-04-21T02:45:51;101601.56;;;15.94;46.38
31044;BME280;17710;52.520;13.352;2023-04-21T02:48:19;101609.81;;;15.88;46.44
31044;BME280;17710;52.520;13.352;2023-04-21T02:50:47;101615.94;;;15.90;46.34
31044;BME280;17710;52.520;13.352;2023-04-21T02:53:13;101604.66;;;16.04;45.87
31044;BME280;17710;52.520;13.352;2023-04-21T02:55:40;101603.53;;;15.89;46.28
31044;BME280;17710;52.520;13.352;2023-04-21T02:58:06;101597.09;;;15.94;46.04
31044;BME280;17710;52.520;13.352;2023-04-21T03:00:33;101597.16;;;15.73;46.15
31044;BME280;17710;52.520;13.352;2023-04-21T03:02:59;101602.44;;;15.74;46.31
31044;BME280;17710;52.520;13.352;2023-04-21T03:05:28;101608.25;;;15.82;45.84
31044;BME280;17710;52.520;13.352;2023-04-21T03:07:54;101604.88;;;15.79;45.96
31044;BME280;17710;52.520;13.352;2023-04-21T03:10:20;101600.88;;;15.69;45.85
31044;BME280;17710;52.520;13.352;2023-04-21T03:12:47;101605.81;;;15.78;45.88
31044;BME280;17710;52.520;13.352;2023-04-21T03:15:14;101597.47;;;15.65;45.93
31044;BME280;17710;52.520;13.352;2023-04-21T03:17:41;101593.56;;;15.74;46.05
31044;BME280;17710;52.520;13.352;2023-04-21T03:20:08;101595.03;;;15.81;45.84
31044;BME280;17710;52.520;13.352;2023-04-21T03:22:37;101601.41;;;15.77;45.93
31044;BME280;17710;52.520;13.352;2023-04-21T03:25:04;101592.88;;;15.89;45.73
31044;BME280;17710;52.520;13.352;2023-04-21T03:27:31;101595.22;;;15.76;45.76
31044;BME280;17710;52.520;13.352;2023-04-21T03:29:57;101595.41;;;15.72;45.88
31044;BME280;17710;52.520;13.352;2023-04-21T03:32:24;101597.47;;;15.65;45.82
31044;BME280;17710;52.520;13.352;2023-04-21T03:34:50;101598.97;;;15.50;46.27
31044;BME280;17710;52.520;13.352;2023-04-21T03:37:17;101605.03;;;15.56;45.99
31044;BME280;17710;52.520;13.352;2023-04-21T03:39:45;101597.94;;;15.54;46.06
31044;BME280;17710;52.520;13.352;2023-04-21T03:42:11;101599.06;;;15.49;46.19
31044;BME280;17710;52.520;13.352;2023-04-21T03:44:38;101601.22;;;15.39;46.57
31044;BME280;17710;52.520;13.352;2023-04-21T03:47:04;101596.00;;;15.36;46.46
31044;BME280;17710;52.520;13.352;2023-04-21T03:49:32;101602.56;;;15.49;46.30
31044;BME280;17710;52.520;13.352;2023-04-21T03:51:59;101602.34;;;15.56;46.09
31044;BME280;17710;52.520;13.352;2023-04-21T03:54:25;101595.69;;;15.44;46.18
31044;BME280;17710;52.520;13.352;2023-04-21T03:56:53;101599.06;;;15.27;46.47
31044;BME280;17710;52.520;13.352;2023-04-21T03:59:20;101604.59;;;15.43;46.35
31044;BME280;17710;52.520;13.352;2023-04-21T04:01:46;101599.22;;;15.44;46.22
31044;BME280;17710;52.520;13.352;2023-04-21T04:04:12;101598.97;;;15.50;45.97
31044;BME280;17710;52.520;13.352;2023-04-21T04:06:39;101605.63;;;15.40;46.22
31044;BME280;17710;52.520;13.352;2023-04-21T04:09:05;101610.06;;;15.40;46.47
31044;BME280;17710;52.520;13.352;2023-04-21T04:11:33;101606.88;;;15.32;46.55
31044;BME280;17710;52.520;13.352;2023-04-21T04:14:01;101603.63;;;15.45;46.13
31044;BME280;17710;52.520;13.352;2023-04-21T04:16:27;101607.31;;;15.21;46.39
31044;BME280;17710;52.520;13.352;2023-04-21T04:18:54;101606.50;;;15.41;46.15
31044;BME280;17710;52.520;13.352;2023-04-21T04:21:20;101609.09;;;15.42;46.05
31044;BME280;17710;52.520;13.352;2023-04-21T04:23:48;101608.41;;;15.37;46.25
31044;BME280;17710;52.520;13.352;2023-04-21T04:26:15;101613.41;;;15.45;46.18
31044;BME280;17710;52.520;13.352;2023-04-21T04:28:43;101609.16;;;15.41;46.00
31044;BME280;17710;52.520;13.352;2023-04-21T04:31:10;101619.34;;;15.51;45.94
31044;BME280;17710;52.520;13.352;2023-04-21T04:33:39;101616.38;;;15.37;45.93
31044;BME280;17710;52.520;13.352;2023-04-21T04:36:06;101619.31;;;15.53;46.03
31044;BME280;17710;52.520;13.352;2023-04-21T04:38:33;101617.59;;;15.50;45.77
31044;BME280;17710;52.520;13.352;2023-04-21T04:41:01;101621.34;;;15.46;45.92
31044;BME280;17710;52.520;13.352;2023-04-21T04:43:28;101616.66;;;15.53;45.55
31044;BME280;17710;52.520;13.352;2023-04-21T04:45:57;101623.53;;;15.59;45.62
31044;BME280;17710;52.520;13.352;2023-04-21T04:48:25;101616.69;;;15.51;45.42
31044;BME280;17710;52.520;13.352;2023-04-21T04:50:52;101613.34;;;15.46;45.86
31044;BME280;17710;52.520;13.352;2023-04-21T04:53:18;101623.84;;;15.49;45.76
31044;BME280;17710;52.520;13.352;2023-04-21T04:55:44;101618.47;;;15.51;45.48
31044;BME280;17710;52.520;13.352;2023-04-21T04:58:12;101615.28;;;15.85;44.95
31044;BME280;17710;52.520;13.352;2023-04-21T05:00:38;101623.22;;;15.86;44.84
31044;BME280;17710;52.520;13.352;2023-04-21T05:03:05;101622.19;;;15.89;44.54
31044;BME280;17710;52.520;13.352;2023-04-21T05:05:33;101625.28;;;16.00;44.57
31044;BME280;17710;52.520;13.352;2023-04-21T05:07:59;101630.50;;;16.02;44.26
31044;BME280;17710;52.520;13.352;2023-04-21T05:10:26;101629.41;;;16.07;44.29
31044;BME280;17710;52.520;13.352;2023-04-21T05:12:52;101629.25;;;16.10;44.00
31044;BME280;17710;52.520;13.352;2023-04-21T05:15:19;101634.78;;;16.26;43.78
31044;BME280;17710;52.520;13.352;2023-04-21T05:17:46;101635.97;;;16.19;43.52
31044;BME280;17710;52.520;13.352;2023-04-21T05:20:13;101635.31;;;16.14;43.93
31044;BME280;17710;52.520;13.352;2023-04-21T05:22:41;101627.50;;;16.29;43.43
31044;BME280;17710;52.520;13.352;2023-04-21T05:25:09;101629.25;;;16.49;43.42
31044;BME280;17710;52.520;13.352;2023-04-21T05:27:36;101633.25;;;16.59;43.03
31044;BME280;17710;52.520;13.352;2023-04-21T05:30:03;101630.63;;;16.58;42.77
31044;BME280;17710;52.520;13.352;2023-04-21T05:32:30;101635.88;;;16.80;42.41
31044;BME280;17710;52.520;13.352;2023-04-21T05:34:56;101626.63;;;16.68;42.68
31044;BME280;17710;52.520;13.352;2023-04-21T05:37:23;101626.91;;;16.81;42.77
31044;BME280;17710;52.520;13.352;2023-04-21T05:39:51;101628.91;;;16.94;42.26
31044;BME280;17710;52.520;13.352;2023-04-21T05:42:18;101634.56;;;16.88;42.07
31044;BME280;17710;52.520;13.352;2023-04-21T05:44:46;101623.84;;;17.07;41.68
31044;BME280;17710;52.520;13.352;2023-04-21T05:47:12;101625.59;;;16.89;41.85
31044;BME280;17710;52.520;13.352;2023-04-21T05:49:39;101627.31;;;17.09;41.71
31044;BME280;17710;52.520;13.352;2023-04-21T05:52:08;101634.53;;;17.26;41.36
31044;BME280;17710;52.520;13.352;2023-04-21T05:54:34;101633.97;;;17.19;41.31
31044;BME280;17710;52.520;13.352;2023-04-21T05:57:03;101633.78;;;17.22;40.92
31044;BME280;17710;52.520;13.352;2023-04-21T05:59:32;101631.25;;;17.38;40.84
31044;BME280;17710;52.520;13.352;2023-04-21T06:01:59;101631.88;;;17.43;40.78
31044;BME280;17710;52.520;13.352;2023-04-21T06:04:25;101631.41;;;17.52;40.53
31044;BME280;17710;52.520;13.352;2023-04-21T06:06:52;101627.47;;;17.59;40.33
31044;BME280;17710;52.520;13.352;2023-04-21T06:09:18;101620.28;;;17.61;40.41
31044;BME280;17710;52.520;13.352;2023-04-21T06:11:45;101627.03;;;17.68;39.89
31044;BME280;17710;52.520;13.352;2023-04-21T06:14:13;101624.22;;;17.71;40.15
31044;BME280;17710;52.520;13.352;2023-04-21T06:16:39;101621.41;;;17.91;39.63
31044;BME280;17710;52.520;13.352;2023-04-21T06:19:06;101619.47;;;18.11;39.33
31044;BME280;17710;52.520;13.352;2023-04-21T06:21:35;101611.56;;;18.25;38.83
31044;BME280;17710;52.520;13.352;2023-04-21T06:24:02;101611.53;;;18.42;38.75
31044;BME280;17710;52.520;13.352;2023-04-21T06:26:29;101614.47;;;18.70;37.94
31044;BME280;17710;52.520;13.352;2023-04-21T06:28:55;101607.56;;;18.82;37.67
31044;BME280;17710;52.520;13.352;2023-04-21T06:31:23;101614.97;;;18.93;37.38
31044;BME280;17710;52.520;13.352;2023-04-21T06:33:49;101600.50;;;19.27;36.61
31044;BME280;17710;52.520;13.352;2023-04-21T06:36:16;101605.78;;;19.13;36.71
31044;BME280;17710;52.520;13.352;2023-04-21T06:38:42;101606.50;;;19.16;36.58
31044;BME280;17710;52.520;13.352;2023-04-21T06:41:09;101595.94;;;19.29;36.37
31044;BME280;17710;52.520;13.352;2023-04-21T06:43:35;101602.16;;;19.14;36.34
31044;BME280;17710;52.520;13.352;2023-04-21T06:46:13;101604.06;;;19.11;36.11
31044;BME280;17710;52.520;13.352;2023-04-21T06:48:57;101598.19;;;19.05;36.22
31044;BME280;17710;52.520;13.352;2023-04-21T06:51:24;101588.13;;;19.24;36.55
31044;BME280;17710;52.520;13.352;2023-04-21T06:53:50;101594.78;;;19.33;36.36
31044;BME280;17710;52.520;13.352;2023-04-21T06:56:17;101594.44;;;19.23;35.99
31044;BME280;17710;52.520;13.352;2023-04-21T06:58:43;101590.50;;;19.15;35.97
31044;BME280;17710;52.520;13.352;2023-04-21T07:01:11;101583.84;;;19.06;35.87
31044;BME280;17710;52.520;13.352;2023-04-21T07:03:37;101584.38;;;19.13;35.96
31044;BME280;17710;52.520;13.352;2023-04-21T07:06:06;101589.56;;;19.45;35.91
31044;BME280;17710;52.520;13.352;2023-04-21T07:08:33;101595.47;;;19.82;35.19
31044;BME280;17710;52.520;13.352;2023-04-21T07:10:59;101590.50;;;20.18;34.60
31044;BME280;17710;52.520;13.352;2023-04-21T07:13:26;101589.41;;;20.92;32.90
31044;BME280;17710;52.520;13.352;2023-04-21T07:15:52;101591.88;;;21.48;31.79
31044;BME280;17710;52.520;13.352;2023-04-21T07:18:19;101587.06;;;21.66;31.91
31044;BME280;17710;52.520;13.352;2023-04-21T07:20:45;101586.94;;;21.55;31.77
31044;BME280;17710;52.520;13.352;2023-04-21T07:23:14;101588.59;;;21.58;31.92
31044;BME280;17710;52.520;13.352;2023-04-21T07:25:40;101587.22;;;21.25;32.13
31044;BME280;17710;52.520;13.352;2023-04-21T07:28:07;101587.22;;;21.11;31.79
31044;BME280;17710;52.520;13.352;2023-04-21T07:30:33;101584.25;;;21.16;32.20
31044;BME280;17710;52.520;13.352;2023-04-21T07:33:00;101590.19;;;21.21;31.44
31044;BME280;17710;52.520;13.352;2023-04-21T07:35:27;101589.22;;;21.61;31.31
31044;BME280;17710;52.520;13.352;2023-04-21T07:37:53;101582.16;;;21.85;31.14
31044;BME280;17710;52.520;13.352;2023-04-21T07:40:21;101581.91;;;21.63;31.43
31044;BME280;17710;52.520;13.352;2023-04-21T07:42:48;101580.44;;;21.84;30.81
31044;BME280;17710;52.520;13.352;2023-04-21T07:45:14;101581.28;;;21.72;30.83
31044;BME280;17710;52.520;13.352;2023-04-21T07:47:52;101581.94;;;21.88;30.66
31044;BME280;17710;52.520;13.352;2023-04-21T07:50:18;101580.00;;;21.91;30.46
31044;BME280;17710;52.520;13.352;2023-04-21T07:52:45;101578.56;;;21.60;30.40
31044;BME280;17710;52.520;13.352;2023-04-21T07:55:12;101578.50;;;21.86;30.55
31044;BME280;17710;52.520;13.352;2023-04-21T07:57:40;101585.50;;;21.89;30.86
31044;BME280;17710;52.520;13.352;2023-04-21T08:00:08;101576.13;;;21.82;30.74
31044;BME280;17710;52.520;13.352;2023-04-21T08:02:34;101580.00;;;21.78;30.86
31044;BME280;17710;52.520;13.352;2023-04-21T08:05:01;101585.03;;;21.57;30.41
31044;BME280;17710;52.520;13.352;2023-04-21T08:07:27;101571.88;;;22.17;30.36
31044;BME280;17710;52.520;13.352;2023-04-21T08:09:54;101570.25;;;22.15;30.34
31044;BME280;17710;52.520;13.352;2023-04-21T08:12:21;101573.34;;;22.34;30.05
31044;BME280;17710;52.520;13.352;2023-04-21T08:14:48;101576.91;;;22.22;29.87
31044;BME280;17710;52.520;13.352;2023-04-21T08:17:15;101574.13;;;22.11;29.80
31044;BME280;17710;52.520;13.352;2023-04-21T08:19:41;101573.38;;;21.96;29.88
31044;BME280;17710;52.520;13.352;2023-04-21T08:22:08;101559.88;;;22.34;29.76
31044;BME280;17710;52.520;13.352;2023-04-21T08:24:34;101567.78;;;22.24;29.81
31044;BME280;17710;52.520;13.352;2023-04-21T08:27:01;101564.59;;;22.56;29.70
31044;BME280;17710;52.520;13.352;2023-04-21T08:29:27;101565.28;;;23.07;29.01
31044;BME280;17710;52.520;13.352;2023-04-21T08:31:55;101559.84;;;22.96;29.08
31044;BME280;17710;52.520;13.352;2023-04-21T08:34:22;101564.13;;;22.75;29.18
31044;BME280;17710;52.520;13.352;2023-04-21T08:36:48;101563.88;;;22.78;28.86
31044;BME280;17710;52.520;13.352;2023-04-21T08:39:14;101559.84;;;23.20;28.57
31044;BME280;17710;52.520;13.352;2023-04-21T08:41:41;101559.19;;;23.40;28.24
31044;BME280;17710;52.520;13.352;2023-04-21T08:44:08;101559.09;;;23.18;28.25
31044;BME280;17710;52.520;13.352;2023-04-21T08:46:35;101556.22;;;23.32;27.96
31044;BME280;17710;52.520;13.352;2023-04-21T08:49:04;101552.19;;;23.61;28.04
31044;BME280;17710;52.520;13.352;2023-04-21T08:51:30;101557.91;;;23.57;28.12
31044;BME280;17710;52.520;13.352;2023-04-21T08:53:57;101556.47;;;23.64;27.93
31044;BME280;17710;52.520;13.352;2023-04-21T08:56:24;101556.56;;;23.27;28.09
31044;BME280;17710;52.520;13.352;2023-04-21T08:58:54;101556.31;;;23.30;28.15
31044;BME280;17710;52.520;13.352;2023-04-21T09:01:21;101554.34;;;23.21;27.68
31044;BME280;17710;52.520;13.352;2023-04-21T09:03:47;101548.47;;;23.51;27.89
31044;BME280;17710;52.520;13.352;2023-04-21T09:06:15;101552.31;;;23.12;28.52
31044;BME280;17710;52.520;13.352;2023-04-21T09:08:43;101552.22;;;23.14;28.75
31044;BME280;17710;52.520;13.352;2023-04-21T09:11:12;101549.09;;;23.55;28.29
31044;BME280;17710;52.520;13.352;2023-04-21T09:13:41;101547.06;;;23.45;28.73
31044;BME280;17710;52.520;13.352;2023-04-21T09:16:14;101548.03;;;23.68;28.05
31044;BME280;17710;52.520;13.352;2023-04-21T09:18:41;101547.88;;;23.59;27.69
31044;BME280;17710;52.520;13.352;2023-04-21T09:21:10;101549.38;;;23.63;28.00
31044;BME280;17710;52.520;13.352;2023-04-21T09:23:43;101546.31;;;23.67;28.04
31044;BME280;17710;52.520;13.352;2023-04-21T09:26:10;101555.16;;;23.80;28.22
31044;BME280;17710;52.520;13.352;2023-04-21T09:28:40;101547.06;;;23.92;27.90
31044;BME280;17710;52.520;13.352;2023-04-21T09:31:13;101542.53;;;23.92;27.87
31044;BME280;17710;52.520;13.352;2023-04-21T09:33:43;101545.94;;;23.83;27.60
31044;BME280;17710;52.520;13.352;2023-04-21T09:36:17;101545.44;;;23.67;28.36
31044;BME280;17710;52.520;13.352;2023-04-21T09:38:57;101551.81;;;23.55;28.46
31044;BME280;17710;52.520;13.352;2023-04-21T09:41:23;101543.19;;;23.26;28.80
31044;BME280;17710;52.520;13.352;2023-04-21T09:43:50;101540.28;;;23.64;28.09
31044;BME280;17710;52.520;13.352;2023-04-21T09:46:18;101544.31;;;23.58;27.56
31044;BME280;17710;52.520;13.352;2023-04-21T09:48:46;101527.16;;;23.70;27.88
31044;BME280;17710;52.520;13.352;2023-04-21T09:51:14;101535.84;;;23.52;27.98
31044;BME280;17710;52.520;13.352;2023-04-21T09:53:42;101534.88;;;23.64;27.74
31044;BME280;17710;52.520;13.352;2023-04-21T09:56:12;101524.88;;;23.99;27.76
31044;BME280;17710;52.520;13.352;2023-04-21T09:58:40;101528.66;;;23.97;27.51
31044;BME280;17710;52.520;13.352;2023-04-21T10:01:09;101531.47;;;23.84;27.46
31044;BME280;17710;52.520;13.352;2023-04-21T10:03:37;101531.25;;;23.87;27.05
31044;BME280;17710;52.520;13.352;2023-04-21T10:06:05;101523.75;;;23.68;26.89
31044;BME280;17710;52.520;13.352;2023-04-21T10:08:32;101523.38;;;23.73;26.88
31044;BME280;17710;52.520;13.352;2023-04-21T10:10:59;101535.34;;;23.58;27.11
31044;BME280;17710;52.520;13.352;2023-04-21T10:13:27;101523.38;;;23.73;27.20
31044;BME280;17710;52.520;13.352;2023-04-21T10:16:00;101527.06;;;23.72;27.19
31044;BME280;17710;52.520;13.352;2023-04-21T10:18:31;101521.31;;;23.88;27.25
31044;BME280;17710;52.520;13.352;2023-04-21T10:21:32;101517.75;;;24.09;27.36
31044;BME280;17710;52.520;13.352;2023-04-21T10:24:13;101513.97;;;24.23;27.06
31044;BME280;17710;52.520;13.352;2023-04-21T10:26:39;101516.44;;;24.26;27.44
31044;BME280;17710;52.520;13.352;2023-04-21T10:29:08;101509.22;;;24.27;26.28
31044;BME280;17710;52.520;13.352;2023-04-21T10:31:35;101497.16;;;23.97;26.52
31044;BME280;17710;52.520;13.352;2023-04-21T10:34:16;101500.63;;;24.21;26.53
31044;BME280;17710;52.520;13.352;2023-04-21T10:36:49;101504.53;;;23.95;25.34
31044;BME280;17710;52.520;13.352;2023-04-21T10:39:27;101508.16;;;23.83;25.63
31044;BME280;17710;52.520;13.352;2023-04-21T10:41:54;101503.28;;;23.88;25.17
31044;BME280;17710;52.520;13.352;2023-04-21T10:44:23;101485.88;;;23.81;25.32
31044;BME280;17710;52.520;13.352;2023-04-21T10:46:50;101500.06;;;23.72;24.95
31044;BME280;17710;52.520;13.352;2023-04-21T10:49:22;101499.91;;;22.92;26.15
31044;BME280;17710;52.520;13.352;2023-04-21T10:52:02;101490.88;;;23.28;26.12
31044;BME280;17710;52.520;13.352;2023-04-21T10:54:36;101484.50;;;23.75;26.26
31044;BME280;17710;52.520;13.352;2023-04-21T10:57:07;101489.28;;;23.72;25.68
31044;BME280;17710;52.520;13.352;2023-04-21T10:59:35;101479.34;;;24.06;25.64
31044;BME280;17710;52.520;13.352;2023-04-21T11:02:02;101476.78;;;23.93;25.31
31044;BME280;17710;52.520;13.352;2023-04-21T11:04:29;101475.78;;;23.61;25.61
31044;BME280;17710;52.520;13.352;2023-04-21T11:07:06;101471.25;;;23.72;25.11
31044;BME280;17710;52.520;13.352;2023-04-21T11:09:32;101468.22;;;23.88;25.57
31044;BME280;17710;52.520;13.352;2023-04-21T11:11:59;101466.59;;;23.86;25.81
31044;BME280;17710;52.520;13.352;2023-04-21T11:14:27;101463.03;;;24.07;25.64
31044;BME280;17710;52.520;13.352;2023-04-21T11:16:55;101462.31;;;23.94;25.28
31044;BME280;17710;52.520;13.352;2023-04-21T11:19:21;101470.63;;;23.91;25.75
31044;BME280;17710;52.520;13.352;2023-04-21T11:21:50;101459.47;;;24.07;24.74
31044;BME280;17710;52.520;13.352;2023-04-21T11:24:22;101455.06;;;24.06;25.10
31044;BME280;17710;52.520;13.352;2023-04-21T11:26:48;101450.78;;;24.26;24.97
31044;BME280;17710;52.520;13.352;2023-04-21T11:29:15;101442.63;;;24.37;25.14
31044;BME280;17710;52.520;13.352;2023-04-21T11:31:43;101446.72;;;24.31;24.97
31044;BME280;17710;52.520;13.352;2023-04-21T11:34:13;101447.34;;;24.35;25.17
31044;BME280;17710;52.520;13.352;2023-04-21T11:36:41;101444.63;;;24.23;24.83
31044;BME280;17710;52.520;13.352;2023-04-21T11:39:10;101447.81;;;24.17;24.85
31044;BME280;17710;52.520;13.352;2023-04-21T11:41:38;101441.53;;;24.17;24.80
31044;BME280;17710;52.520;13.352;2023-04-21T11:44:05;101439.00;;;24.15;25.00
31044;BME280;17710;52.520;13.352;2023-04-21T11:46:32;101438.53;;;23.88;24.71
31044;BME280;17710;52.520;13.352;2023-04-21T11:48:59;101431.13;;;24.12;25.39
31044;BME280;17710;52.520;13.352;2023-04-21T11:51:31;101421.94;;;24.15;25.85
31044;BME280;17710;52.520;13.352;2023-04-21T11:53:58;101426.72;;;24.34;25.41
31044;BME280;17710;52.520;13.352;2023-04-21T11:56:25;101426.44;;;24.48;25.09
31044;BME280;17710;52.520;13.352;2023-04-21T11:58:51;101425.28;;;24.50;23.84
31044;BME280;17710;52.520;13.352;2023-04-21T12:01:18;101430.53;;;24.63;24.03
31044;BME280;17710;52.520;13.352;2023-04-21T12:03:52;101421.56;;;24.08;24.28
31044;BME280;17710;52.520;13.352;2023-04-21T12:06:20;101423.03;;;24.12;24.80
31044;BME280;17710;52.520;13.352;2023-04-21T12:08:51;101419.00;;;23.96;24.23
31044;BME280;17710;52.520;13.352;2023-04-21T12:11:19;101424.00;;;24.11;24.41
31044;BME280;17710;52.520;13.352;2023-04-21T12:13:46;101423.03;;;24.12;24.04
31044;BME280;17710;52.520;13.352;2023-04-21T12:16:12;101421.31;;;24.11;24.60
31044;BME280;17710;52.520;13.352;2023-04-21T12:18:38;101414.06;;;24.34;24.60
31044;BME280;17710;52.520;13.352;2023-04-21T12:21:05;101408.50;;;24.36;24.56
31044;BME280;17710;52.520;13.352;2023-04-21T12:23:32;101407.41;;;24.70;24.20
31044;BME280;17710;52.520;13.352;2023-04-21T12:25:59;101400.44;;;24.68;24.52
31044;BME280;17710;52.520;13.352;2023-04-21T12:28:26;101399.84;;;24.85;24.41
31044;BME280;17710;52.520;13.352;2023-04-21T12:30:52;101379.88;;;24.76;24.01
31044;BME280;17710;52.520;13.352;2023-04-21T12:33:18;101391.59;;;24.97;23.91
31044;BME280;17710;52.520;13.352;2023-04-21T12:35:45;101393.34;;;24.87;23.43
31044;BME280;17710;52.520;13.352;2023-04-21T12:38:11;101395.47;;;25.05;23.17
31044;BME280;17710;52.520;13.352;2023-04-21T12:40:43;101391.88;;;24.83;23.78
31044;BME280;17710;52.520;13.352;2023-04-21T12:43:11;101395.75;;;24.70;24.57